sensor_id;sensor_type;location;lat;lon;timestamp;pressure;altitude;pressure_sealevel;temperature;humidity
3968;BME280;9221;42.646;23.380;2023-01-29T00:02:02;94511.84;;;0.58;89.52
3968;BME280;9221;42.646;23.380;2023-01-29T00:04:28;94567.38;;;0.84;89.60
3968;BME280;9221;42.646;23.380;2023-01-29T00:06:54;94587.31;;;1.13;89.54
3968;BME280;9221;42.646;23.380;2023-01-29T00:09:19;94613.19;;;1.14;89.85
3968;BME280;9221;42.646;23.380;2023-01-29T00:11:45;94588.72;;;1.04;89.86
3968;BME280;9221;42.646;23.380;2023-01-29T00:14:11;94618.28;;;1.16;89.38
3968;BME280;9221;42.646;23.380;2023-01-29T00:16:36;94604.94;;;1.08;89.77
3968;BME280;9221;42.646;23.380;2023-01-29T00:19:02;94661.19;;;1.23;89.34
3968;BME280;9221;42.646;23.380;2023-01-29T00:21:28;94659.09;;;0.99;89.33
3968;BME280;9221;42.646;23.380;2023-01-29T00:23:55;94666.56;;;1.34;89.71
3968;BME280;9221;42.646;23.380;2023-01-29T00:26:21;94593.63;;;1.09;89.24
3968;BME280;9221;42.646;23.380;2023-01-29T00:28:46;94620.72;;;1.33;89.18
3968;BME280;9221;42.646;23.380;2023-01-29T00:31:18;94679.00;;;1.44;88.90
3968;BME280;9221;42.646;23.380;2023-01-29T00:33:44;94603.75;;;1.28;89.01
3968;BME280;9221;42.646;23.380;2023-01-29T00:36:11;94589.91;;;1.13;88.39
3968;BME280;9221;42.646;23.380;2023-01-29T00:38:37;94611.63;;;1.12;88.65
3968;BME280;9221;42.646;23.380;2023-01-29T00:41:11;94630.16;;;1.49;88.49
3968;BME280;9221;42.646;23.380;2023-01-29T00:43:55;94631.84;;;1.50;88.45
3968;BME280;9221;42.646;23.380;2023-01-29T00:46:39;94633.97;;;1.58;88.43
3968;BME280;9221;42.646;23.380;2023-01-29T00:49:05;94673.41;;;1.50;87.99
3968;BME280;9221;42.646;23.380;2023-01-29T00:51:31;94622.19;;;1.38;88.35
3968;BME280;9221;42.646;23.380;2023-01-29T00:53:57;94705.91;;;1.43;88.66
3968;BME280;9221;42.646;23.380;2023-01-29T00:56:26;94586.56;;;1.25;88.54
3968;BME280;9221;42.646;23.380;2023-01-29T00:58:52;94626.84;;;1.47;88.48
3968;BME280;9221;42.646;23.380;2023-01-29T01:01:19;94668.03;;;1.39;88.18
3968;BME280;9221;42.646;23.380;2023-01-29T01:04:04;94666.19;;;1.26;89.06
3968;BME280;9221;42.646;23.380;2023-01-29T01:06:29;94611.47;;;1.15;88.93
3968;BME280;9221;42.646;23.380;2023-01-29T01:08:54;94584.91;;;0.95;89.67
3968;BME280;9221;42.646;23.380;2023-01-29T01:11:38;94587.06;;;1.03;89.77
3968;BME280;9221;42.646;23.380;2023-01-29T01:14:04;94511.03;;;0.58;89.96
3968;BME280;9221;42.646;23.380;2023-01-29T01:16:29;94607.44;;;1.09;90.12
3968;BME280;9221;42.646;23.380;2023-01-29T01:18:54;94592.91;;;1.07;90.02
3968;BME280;9221;42.646;23.380;2023-01-29T01:21:20;94595.38;;;1.23;90.19
3968;BME280;9221;42.646;23.380;2023-01-29T01:23:45;94615.59;;;1.17;90.57
3968;BME280;9221;42.646;23.380;2023-01-29T01:26:11;94626.84;;;1.18;90.18
3968;BME280;9221;42.646;23.380;2023-01-29T01:28:37;94655.97;;;1.38;90.49
3968;BME280;9221;42.646;23.380;2023-01-29T01:31:08;94594.91;;;1.16;90.61
3968;BME280;9221;42.646;23.380;2023-01-29T01:33:33;94576.00;;;0.99;90.94
3968;BME280;9221;42.646;23.380;2023-01-29T01:36:03;94610.63;;;1.29;91.57
3968;BME280;9221;42.646;23.380;2023-01-29T01:38:28;94565.53;;;1.01;91.06
3968;BME280;9221;42.646;23.380;2023-01-29T01:40:54;94629.91;;;1.25;91.35
3968;BME280;9221;42.646;23.380;2023-01-29T01:43:19;94597.00;;;1.11;91.80
3968;BME280;9221;42.646;23.380;2023-01-29T01:45:45;94691.84;;;1.02;91.50
3968;BME280;9221;42.646;23.380;2023-01-29T01:48:14;94616.66;;;1.15;91.37
3968;BME280;9221;42.646;23.380;2023-01-29T01:50:44;94630.38;;;1.17;91.94
3968;BME280;9221;42.646;23.380;2023-01-29T01:53:13;94639.06;;;1.16;91.32
3968;BME280;9221;42.646;23.380;2023-01-29T01:55:44;94575.66;;;0.77;91.57
3968;BME280;9221;42.646;23.380;2023-01-29T01:58:15;94760.44;;;0.98;91.95
3968;BME280;9221;42.646;23.380;2023-01-29T02:00:42;94594.34;;;0.82;92.18
3968;BME280;9221;42.646;23.380;2023-01-29T02:03:08;94743.47;;;0.92;92.14
3968;BME280;9221;42.646;23.380;2023-01-29T02:05:54;94599.53;;;0.82;92.14
3968;BME280;9221;42.646;23.380;2023-01-29T02:08:46;94606.22;;;0.86;92.66
3968;BME280;9221;42.646;23.380;2023-01-29T02:11:33;94623.03;;;1.09;92.45
3968;BME280;9221;42.646;23.380;2023-01-29T02:13:58;94637.06;;;1.07;92.83
3968;BME280;9221;42.646;23.380;2023-01-29T02:16:24;94585.56;;;0.70;92.58
3968;BME280;9221;42.646;23.380;2023-01-29T02:18:50;94581.38;;;0.67;92.81
3968;BME280;9221;42.646;23.380;2023-01-29T02:21:28;94581.56;;;0.64;92.86
3968;BME280;9221;42.646;23.380;2023-01-29T02:27:13;94692.66;;;0.88;93.42
3968;BME280;9221;42.646;23.380;2023-01-29T02:30:01;94644.06;;;0.90;93.61
3968;BME280;9221;42.646;23.380;2023-01-29T02:35:14;94597.84;;;0.52;93.93
3968;BME280;9221;42.646;23.380;2023-01-29T02:38:14;94705.81;;;0.99;94.05
3968;BME280;9221;42.646;23.380;2023-01-29T02:43:46;94664.47;;;0.96;94.49
3968;BME280;9221;42.646;23.380;2023-01-29T02:46:17;94670.97;;;0.89;94.61
3968;BME280;9221;42.646;23.380;2023-01-29T02:48:54;94656.50;;;0.85;95.02
3968;BME280;9221;42.646;23.380;2023-01-29T02:51:32;94680.06;;;0.96;94.96
3968;BME280;9221;42.646;23.380;2023-01-29T02:54:09;94643.50;;;0.85;95.31
3968;BME280;9221;42.646;23.380;2023-01-29T02:56:53;94617.88;;;0.64;94.68
3968;BME280;9221;42.646;23.380;2023-01-29T02:59:23;94618.03;;;0.61;94.74
3968;BME280;9221;42.646;23.380;2023-01-29T03:01:55;94661.88;;;0.96;95.34
3968;BME280;9221;42.646;23.380;2023-01-29T03:04:28;94647.59;;;0.89;95.05
3968;BME280;9221;42.646;23.380;2023-01-29T03:06:59;94630.88;;;0.64;95.25
3968;BME280;9221;42.646;23.380;2023-01-29T03:09:32;94571.28;;;0.32;95.41
3968;BME280;9221;42.646;23.380;2023-01-29T03:12:05;94706.75;;;0.98;95.81
3968;BME280;9221;42.646;23.380;2023-01-29T03:14:45;94617.13;;;0.62;95.54
3968;BME280;9221;42.646;23.380;2023-01-29T03:17:36;94623.09;;;0.64;95.62
3968;BME280;9221;42.646;23.380;2023-01-29T03:20:07;94663.31;;;0.86;95.91
3968;BME280;9221;42.646;23.380;2023-01-29T03:22:38;94696.63;;;0.94;95.66
3968;BME280;9221;42.646;23.380;2023-01-29T03:25:07;94656.31;;;0.88;95.94
3968;BME280;9221;42.646;23.380;2023-01-29T03:27:56;94643.13;;;0.77;95.74
3968;BME280;9221;42.646;23.380;2023-01-29T03:30:47;94628.38;;;0.77;95.58
3968;BME280;9221;42.646;23.380;2023-01-29T03:33:39;94611.13;;;0.76;95.23
3968;BME280;9221;42.646;23.380;2023-01-29T03:36:15;94656.88;;;0.93;94.73
3968;BME280;9221;42.646;23.380;2023-01-29T03:38:42;94641.44;;;0.76;94.58
3968;BME280;9221;42.646;23.380;2023-01-29T03:41:16;94582.09;;;0.55;94.36
3968;BME280;9221;42.646;23.380;2023-01-29T03:54:18;94624.69;;;0.81;92.77
3968;BME280;9221;42.646;23.380;2023-01-29T03:59:45;94689.53;;;1.12;93.27
3968;BME280;9221;42.646;23.380;2023-01-29T04:02:18;94670.72;;;1.08;93.05
3968;BME280;9221;42.646;23.380;2023-01-29T04:04:47;94670.16;;;1.03;93.31
3968;BME280;9221;42.646;23.380;2023-01-29T04:07:18;94717.22;;;0.97;94.01
3968;BME280;9221;42.646;23.380;2023-01-29T04:09:57;94714.38;;;1.01;93.98
3968;BME280;9221;42.646;23.380;2023-01-29T04:12:30;94664.28;;;0.99;93.84
3968;BME280;9221;42.646;23.380;2023-01-29T04:15:00;94628.75;;;0.71;94.40
3968;BME280;9221;42.646;23.380;2023-01-29T04:17:38;94753.06;;;1.06;94.64
3968;BME280;9221;42.646;23.380;2023-01-29T04:20:05;94695.28;;;1.03;94.90
3968;BME280;9221;42.646;23.380;2023-01-29T04:22:33;94641.66;;;0.87;94.42
3968;BME280;9221;42.646;23.380;2023-01-29T04:25:02;94646.84;;;0.87;94.51
3968;BME280;9221;42.646;23.380;2023-01-29T04:27:54;94719.03;;;1.11;94.86
3968;BME280;9221;42.646;23.380;2023-01-29T04:49:21;94665.38;;;0.81;93.98
3968;BME280;9221;42.646;23.380;2023-01-29T04:52:29;94700.28;;;1.06;93.61
3968;BME280;9221;42.646;23.380;2023-01-29T04:54:59;94691.44;;;0.94;94.00
3968;BME280;9221;42.646;23.380;2023-01-29T05:00:28;94658.56;;;0.64;93.48
3968;BME280;9221;42.646;23.380;2023-01-29T05:02:58;94698.97;;;0.98;94.14
3968;BME280;9221;42.646;23.380;2023-01-29T05:05:25;94662.03;;;0.79;94.08
3968;BME280;9221;42.646;23.380;2023-01-29T05:07:51;94676.88;;;0.77;94.20
3968;BME280;9221;42.646;23.380;2023-01-29T05:10:19;94719.38;;;1.05;93.65
3968;BME280;9221;42.646;23.380;2023-01-29T05:12:59;94705.00;;;0.99;93.69
3968;BME280;9221;42.646;23.380;2023-01-29T05:15:33;94647.44;;;0.62;93.63
3968;BME280;9221;42.646;23.380;2023-01-29T05:17:59;94729.19;;;0.99;93.91
3968;BME280;9221;42.646;23.380;2023-01-29T05:20:29;94757.59;;;1.03;93.47
3968;BME280;9221;42.646;23.380;2023-01-29T05:22:56;94678.44;;;0.79;93.33
3968;BME280;9221;42.646;23.380;2023-01-29T05:25:24;94754.44;;;0.97;93.21
3968;BME280;9221;42.646;23.380;2023-01-29T05:27:51;94721.25;;;1.03;93.49
3968;BME280;9221;42.646;23.380;2023-01-29T05:30:37;94704.81;;;1.02;93.35
3968;BME280;9221;42.646;23.380;2023-01-29T05:33:04;94740.16;;;1.05;92.66
3968;BME280;9221;42.646;23.380;2023-01-29T05:35:35;94676.09;;;0.75;92.78
3968;BME280;9221;42.646;23.380;2023-01-29T05:38:00;94719.03;;;1.11;92.83
3968;BME280;9221;42.646;23.380;2023-01-29T05:40:26;94698.97;;;0.98;93.02
3968;BME280;9221;42.646;23.380;2023-01-29T05:42:51;94721.25;;;1.03;92.83
3968;BME280;9221;42.646;23.380;2023-01-29T05:45:17;94703.38;;;0.82;93.34
3968;BME280;9221;42.646;23.380;2023-01-29T05:47:43;94718.22;;;0.94;92.73
3968;BME280;9221;42.646;23.380;2023-01-29T05:50:10;94723.44;;;0.94;93.58
3968;BME280;9221;42.646;23.380;2023-01-29T05:52:35;94710.41;;;0.80;93.88
3968;BME280;9221;42.646;23.380;2023-01-29T05:55:01;94718.50;;;0.90;94.25
3968;BME280;9221;42.646;23.380;2023-01-29T05:57:26;94696.78;;;0.76;94.06
3968;BME280;9221;42.646;23.380;2023-01-29T05:59:51;94737.34;;;0.93;94.18
3968;BME280;9221;42.646;23.380;2023-01-29T06:02:17;94729.59;;;1.08;94.22
3968;BME280;9221;42.646;23.380;2023-01-29T06:04:42;94729.44;;;1.11;94.22
3968;BME280;9221;42.646;23.380;2023-01-29T06:07:07;94734.69;;;1.09;93.93
3968;BME280;9221;42.646;23.380;2023-01-29T06:09:33;94744.63;;;1.17;93.83
3968;BME280;9221;42.646;23.380;2023-01-29T06:11:58;94753.00;;;1.22;93.84
3968;BME280;9221;42.646;23.380;2023-01-29T06:14:23;94764.75;;;1.13;93.88
3968;BME280;9221;42.646;23.380;2023-01-29T06:16:49;94704.03;;;0.86;94.16
3968;BME280;9221;42.646;23.380;2023-01-29T06:19:14;94749.75;;;1.18;93.99
3968;BME280;9221;42.646;23.380;2023-01-29T06:21:40;94770.41;;;1.20;93.65
3968;BME280;9221;42.646;23.380;2023-01-29T06:24:05;94759.63;;;0.97;94.29
3968;BME280;9221;42.646;23.380;2023-01-29T06:26:31;94673.31;;;0.63;94.33
3968;BME280;9221;42.646;23.380;2023-01-29T06:28:56;94764.03;;;1.26;94.40
3968;BME280;9221;42.646;23.380;2023-01-29T06:31:21;94773.59;;;1.25;94.46
3968;BME280;9221;42.646;23.380;2023-01-29T06:33:47;94737.91;;;0.98;94.15
3968;BME280;9221;42.646;23.380;2023-01-29T06:36:12;94751.94;;;1.10;93.89
3968;BME280;9221;42.646;23.380;2023-01-29T06:38:37;94729.97;;;1.01;94.20
3968;BME280;9221;42.646;23.380;2023-01-29T06:41:12;94739.25;;;1.06;94.35
3968;BME280;9221;42.646;23.380;2023-01-29T06:43:39;94784.00;;;1.25;93.75
3968;BME280;9221;42.646;23.380;2023-01-29T06:46:07;94773.03;;;1.20;94.44
3968;BME280;9221;42.646;23.380;2023-01-29T06:48:33;94763.44;;;1.06;94.15
3968;BME280;9221;42.646;23.380;2023-01-29T06:51:03;94756.56;;;1.05;93.76
3968;BME280;9221;42.646;23.380;2023-01-29T06:53:29;94794.38;;;1.25;94.01
3968;BME280;9221;42.646;23.380;2023-01-29T06:55:54;94764.94;;;1.10;93.84
3968;BME280;9221;42.646;23.380;2023-01-29T06:58:21;94770.13;;;1.10;94.21
3968;BME280;9221;42.646;23.380;2023-01-29T07:00:46;94801.28;;;1.41;93.85
3968;BME280;9221;42.646;23.380;2023-01-29T07:03:12;94786.44;;;1.43;93.63
3968;BME280;9221;42.646;23.380;2023-01-29T07:05:37;94840.25;;;1.41;94.02
3968;BME280;9221;42.646;23.380;2023-01-29T07:08:03;94847.97;;;1.42;94.00
3968;BME280;9221;42.646;23.380;2023-01-29T07:10:28;94806.03;;;1.48;94.06
3968;BME280;9221;42.646;23.380;2023-01-29T07:12:54;94790.63;;;1.45;93.70
3968;BME280;9221;42.646;23.380;2023-01-29T07:15:19;94797.94;;;1.53;93.47
3968;BME280;9221;42.646;23.380;2023-01-29T07:18:02;94817.09;;;1.52;93.66
3968;BME280;9221;42.646;23.380;2023-01-29T07:20:39;94853.88;;;1.60;93.77
3968;BME280;9221;42.646;23.380;2023-01-29T07:23:06;94756.72;;;1.18;93.28
3968;BME280;9221;42.646;23.380;2023-01-29T07:25:33;94755.22;;;1.14;93.27
3968;BME280;9221;42.646;23.380;2023-01-29T07:28:02;94765.81;;;1.25;93.87
3968;BME280;9221;42.646;23.380;2023-01-29T07:30:27;94773.41;;;1.28;93.43
3968;BME280;9221;42.646;23.380;2023-01-29T07:32:53;94852.91;;;1.61;93.39
3968;BME280;9221;42.646;23.380;2023-01-29T07:35:18;94809.09;;;1.55;93.24
3968;BME280;9221;42.646;23.380;2023-01-29T07:37:48;94822.13;;;1.69;93.40
3968;BME280;9221;42.646;23.380;2023-01-29T07:40:13;94815.16;;;1.70;93.27
3968;BME280;9221;42.646;23.380;2023-01-29T07:42:39;94779.94;;;1.35;92.97
3968;BME280;9221;42.646;23.380;2023-01-29T07:45:07;94760.81;;;1.37;92.91
3968;BME280;9221;42.646;23.380;2023-01-29T07:47:33;94774.94;;;1.47;92.57
3968;BME280;9221;42.646;23.380;2023-01-29T07:49:58;94784.41;;;1.48;92.37
3968;BME280;9221;42.646;23.380;2023-01-29T07:52:24;94819.88;;;1.63;92.15
3968;BME280;9221;42.646;23.380;2023-01-29T07:54:49;94747.31;;;1.15;92.24
3968;BME280;9221;42.646;23.380;2023-01-29T07:57:15;94789.78;;;1.45;92.36
3968;BME280;9221;42.646;23.380;2023-01-29T07:59:40;94869.59;;;1.43;92.26
3968;BME280;9221;42.646;23.380;2023-01-29T08:02:05;94749.34;;;1.10;92.45
3968;BME280;9221;42.646;23.380;2023-01-29T08:04:31;94835.13;;;1.69;92.89
3968;BME280;9221;42.646;23.380;2023-01-29T08:06:56;94955.63;;;1.68;93.04
3968;BME280;9221;42.646;23.380;2023-01-29T08:09:21;94783.28;;;1.38;93.20
3968;BME280;9221;42.646;23.380;2023-01-29T08:11:47;94832.44;;;1.71;93.11
3968;BME280;9221;42.646;23.380;2023-01-29T08:14:12;94830.38;;;1.76;92.90
3968;BME280;9221;42.646;23.380;2023-01-29T08:16:37;94844.97;;;1.79;92.49
3968;BME280;9221;42.646;23.380;2023-01-29T08:19:03;94825.91;;;1.64;92.38
3968;BME280;9221;42.646;23.380;2023-01-29T08:21:28;94808.44;;;1.37;92.16
3968;BME280;9221;42.646;23.380;2023-01-29T08:23:54;94846.56;;;1.67;91.90
3968;BME280;9221;42.646;23.380;2023-01-29T08:26:19;94844.00;;;1.51;91.97
3968;BME280;9221;42.646;23.380;2023-01-29T08:28:44;94802.94;;;1.27;92.67
3968;BME280;9221;42.646;23.380;2023-01-29T08:31:18;94813.34;;;1.42;91.51
3968;BME280;9221;42.646;23.380;2023-01-29T08:33:46;94804.72;;;1.41;91.58
3968;BME280;9221;42.646;23.380;2023-01-29T08:36:12;94896.03;;;1.65;91.54
3968;BME280;9221;42.646;23.380;2023-01-29T08:38:38;94862.78;;;1.56;91.40
3968;BME280;9221;42.646;23.380;2023-01-29T08:41:05;94852.91;;;1.61;91.97
3968;BME280;9221;42.646;23.380;2023-01-29T08:43:30;94891.34;;;1.56;91.22
3968;BME280;9221;42.646;23.380;2023-01-29T08:45:56;94835.06;;;1.41;91.25
3968;BME280;9221;42.646;23.380;2023-01-29T08:48:21;94839.38;;;1.56;90.96
3968;BME280;9221;42.646;23.380;2023-01-29T08:50:47;94849.59;;;1.59;90.96
3968;BME280;9221;42.646;23.380;2023-01-29T08:53:12;94866.59;;;1.65;90.90
3968;BME280;9221;42.646;23.380;2023-01-29T08:55:39;94893.97;;;1.71;91.13
3968;BME280;9221;42.646;23.380;2023-01-29T08:58:05;94821.50;;;1.35;90.31
3968;BME280;9221;42.646;23.380;2023-01-29T09:00:32;94825.81;;;1.51;90.07
3968;BME280;9221;42.646;23.380;2023-01-29T09:02:58;94826.34;;;1.42;89.90
3968;BME280;9221;42.646;23.380;2023-01-29T09:05:25;94831.19;;;1.48;89.76
3968;BME280;9221;42.646;23.380;2023-01-29T09:07:51;94916.28;;;1.75;89.37
3968;BME280;9221;42.646;23.380;2023-01-29T09:10:17;94833.41;;;1.54;89.65
3968;BME280;9221;42.646;23.380;2023-01-29T09:12:42;94880.16;;;1.84;89.35
3968;BME280;9221;42.646;23.380;2023-01-29T09:15:08;94872.47;;;1.83;88.96
3968;BME280;9221;42.646;23.380;2023-01-29T09:17:33;94948.97;;;1.79;88.83
3968;BME280;9221;42.646;23.380;2023-01-29T09:19:59;94847.56;;;1.79;88.36
3968;BME280;9221;42.646;23.380;2023-01-29T09:22:24;94837.91;;;1.66;88.03
3968;BME280;9221;42.646;23.380;2023-01-29T09:24:50;94885.69;;;1.94;87.74
3968;BME280;9221;42.646;23.380;2023-01-29T09:27:15;94918.00;;;1.90;88.28
3968;BME280;9221;42.646;23.380;2023-01-29T09:29:41;94872.31;;;1.86;88.18
3968;BME280;9221;42.646;23.380;2023-01-29T09:32:07;94866.38;;;1.98;88.22
3968;BME280;9221;42.646;23.380;2023-01-29T09:34:32;94867.56;;;1.93;88.01
3968;BME280;9221;42.646;23.380;2023-01-29T09:36:58;94989.53;;;1.97;87.79
3968;BME280;9221;42.646;23.380;2023-01-29T09:39:23;94851.47;;;1.72;87.90
3968;BME280;9221;42.646;23.380;2023-01-29T09:42:09;94814.22;;;1.57;87.68
3968;BME280;9221;42.646;23.380;2023-01-29T09:47:23;94858.19;;;1.90;87.92
3968;BME280;9221;42.646;23.380;2023-01-29T09:49:54;94964.22;;;1.85;87.69
3968;BME280;9221;42.646;23.380;2023-01-29T09:52:27;94859.84;;;1.91;87.67
3968;BME280;9221;42.646;23.380;2023-01-29T09:57:40;94863.41;;;1.90;87.70
3968;BME280;9221;42.646;23.380;2023-01-29T10:00:14;94925.41;;;1.82;88.30
3968;BME280;9221;42.646;23.380;2023-01-29T10:03:11;94856.13;;;1.95;87.72
3968;BME280;9221;42.646;23.380;2023-01-29T10:25:14;94843.31;;;1.78;87.94
3968;BME280;9221;42.646;23.380;2023-01-29T10:27:44;94784.81;;;1.56;88.12
3968;BME280;9221;42.646;23.380;2023-01-29T10:32:47;94836.34;;;1.93;88.20
3968;BME280;9221;42.646;23.380;2023-01-29T10:35:42;94834.50;;;1.95;87.90
3968;BME280;9221;42.646;23.380;2023-01-29T10:54:41;94825.50;;;1.86;88.49
3968;BME280;9221;42.646;23.380;2023-01-29T11:02:22;94773.38;;;1.59;88.32
3968;BME280;9221;42.646;23.380;2023-01-29T11:04:48;94762.97;;;1.44;88.28
3968;BME280;9221;42.646;23.380;2023-01-29T11:07:16;94844.91;;;1.50;88.36
3968;BME280;9221;42.646;23.380;2023-01-29T11:09:56;94800.03;;;1.77;88.69
3968;BME280;9221;42.646;23.380;2023-01-29T11:12:28;94782.97;;;1.73;88.83
3968;BME280;9221;42.646;23.380;2023-01-29T11:15:25;94776.28;;;1.68;87.81
3968;BME280;9221;42.646;23.380;2023-01-29T11:18:12;94801.72;;;1.78;87.95
3968;BME280;9221;42.646;23.380;2023-01-29T11:20:39;94763.25;;;1.54;87.95
3968;BME280;9221;42.646;23.380;2023-01-29T11:23:05;94776.06;;;1.72;88.37
3968;BME280;9221;42.646;23.380;2023-01-29T11:25:31;94778.69;;;1.86;88.14
3968;BME280;9221;42.646;23.380;2023-01-29T11:28:00;94834.50;;;1.95;87.97
3968;BME280;9221;42.646;23.380;2023-01-29T11:30:31;94753.13;;;1.64;87.88
3968;BME280;9221;42.646;23.380;2023-01-29T11:35:29;94793.72;;;1.95;87.92
3968;BME280;9221;42.646;23.380;2023-01-29T11:38:14;94756.97;;;1.73;87.83
3968;BME280;9221;42.646;23.380;2023-01-29T11:40:43;94823.28;;;1.94;87.90
3968;BME280;9221;42.646;23.380;2023-01-29T11:45:38;94859.50;;;1.97;87.99
3968;BME280;9221;42.646;23.380;2023-01-29T11:48:05;94716.47;;;1.83;87.75
3968;BME280;9221;42.646;23.380;2023-01-29T11:50:38;94694.94;;;1.81;87.30
3968;BME280;9221;42.646;23.380;2023-01-29T11:53:04;94771.69;;;2.30;87.03
3968;BME280;9221;42.646;23.380;2023-01-29T11:55:32;94720.81;;;1.97;86.33
3968;BME280;9221;42.646;23.380;2023-01-29T11:58:10;94823.25;;;2.09;86.69
3968;BME280;9221;42.646;23.380;2023-01-29T12:00:39;94814.34;;;2.27;87.10
3968;BME280;9221;42.646;23.380;2023-01-29T12:03:19;94746.50;;;2.30;86.65
3968;BME280;9221;42.646;23.380;2023-01-29T12:05:57;94775.09;;;2.45;86.38
3968;BME280;9221;42.646;23.380;2023-01-29T12:08:24;94772.56;;;2.43;86.25
3968;BME280;9221;42.646;23.380;2023-01-29T12:10:50;94770.06;;;2.42;86.00
3968;BME280;9221;42.646;23.380;2023-01-29T12:13:25;94800.69;;;2.38;85.81
3968;BME280;9221;42.646;23.380;2023-01-29T12:16:10;94656.50;;;1.57;86.10
3968;BME280;9221;42.646;23.380;2023-01-29T12:18:40;94766.94;;;2.36;86.59
3968;BME280;9221;42.646;23.380;2023-01-29T12:21:20;94710.97;;;2.02;86.42
3968;BME280;9221;42.646;23.380;2023-01-29T12:26:16;94749.84;;;2.32;85.70
3968;BME280;9221;42.646;23.380;2023-01-29T12:34:54;94649.47;;;1.74;85.61
3968;BME280;9221;42.646;23.380;2023-01-29T12:37:47;94772.69;;;2.42;85.77
3968;BME280;9221;42.646;23.380;2023-01-29T12:40:17;94742.06;;;2.18;85.08
3968;BME280;9221;42.646;23.380;2023-01-29T12:42:52;94716.63;;;2.09;85.71
3968;BME280;9221;42.646;23.380;2023-01-29T12:45:21;94781.59;;;2.52;85.54
3968;BME280;9221;42.646;23.380;2023-01-29T12:47:51;94786.38;;;2.58;85.61
3968;BME280;9221;42.646;23.380;2023-01-29T12:50:20;94774.25;;;2.44;85.57
3968;BME280;9221;42.646;23.380;2023-01-29T12:52:55;94762.47;;;2.39;85.52
3968;BME280;9221;42.646;23.380;2023-01-29T12:58:01;94767.66;;;2.53;85.42
3968;BME280;9221;42.646;23.380;2023-01-29T13:00:32;94769.28;;;2.54;85.47
3968;BME280;9221;42.646;23.380;2023-01-29T13:05:44;94719.38;;;2.20;84.77
3968;BME280;9221;42.646;23.380;2023-01-29T13:08:16;94827.41;;;2.54;84.70
3968;BME280;9221;42.646;23.380;2023-01-29T13:10:48;94718.75;;;2.16;84.60
3968;BME280;9221;42.646;23.380;2023-01-29T13:15:48;94769.81;;;2.32;84.90
3968;BME280;9221;42.646;23.380;2023-01-29T13:20:49;94769.50;;;2.51;84.32
3968;BME280;9221;42.646;23.380;2023-01-29T13:23:33;94751.34;;;2.36;84.68
3968;BME280;9221;42.646;23.380;2023-01-29T13:26:01;94733.50;;;2.16;84.78
3968;BME280;9221;42.646;23.380;2023-01-29T13:28:26;94761.53;;;2.40;85.03
3968;BME280;9221;42.646;23.380;2023-01-29T13:31:20;94764.03;;;2.41;84.72
3968;BME280;9221;42.646;23.380;2023-01-29T13:34:06;94731.56;;;2.19;85.02
3968;BME280;9221;42.646;23.380;2023-01-29T13:36:35;94756.25;;;2.27;84.09
3968;BME280;9221;42.646;23.380;2023-01-29T13:39:07;94783.28;;;2.53;84.71
3968;BME280;9221;42.646;23.380;2023-01-29T13:41:41;94777.75;;;2.58;84.75
3968;BME280;9221;42.646;23.380;2023-01-29T13:44:19;94772.44;;;2.59;84.57
3968;BME280;9221;42.646;23.380;2023-01-29T13:49:38;94789.09;;;2.57;84.88
3968;BME280;9221;42.646;23.380;2023-01-29T13:52:36;94822.31;;;2.53;85.27
3968;BME280;9221;42.646;23.380;2023-01-29T13:55:18;94790.81;;;2.70;85.27
3968;BME280;9221;42.646;23.380;2023-01-29T13:57:52;94735.88;;;2.33;84.91
3968;BME280;9221;42.646;23.380;2023-01-29T14:05:40;94745.88;;;1.98;85.01
3968;BME280;9221;42.646;23.380;2023-01-29T14:13:37;94714.25;;;1.62;84.66
3968;BME280;9221;42.646;23.380;2023-01-29T14:18:30;94802.63;;;2.20;85.57
3968;BME280;9221;42.646;23.380;2023-01-29T14:21:06;94805.16;;;2.22;85.46
3968;BME280;9221;42.646;23.380;2023-01-29T14:23:47;94758.16;;;1.96;84.97
3968;BME280;9221;42.646;23.380;2023-01-29T14:31:58;94819.56;;;2.27;84.55
3968;BME280;9221;42.646;23.380;2023-01-29T14:34:40;94785.28;;;1.92;84.18
3968;BME280;9221;42.646;23.380;2023-01-29T14:42:25;94864.78;;;2.10;85.30
3968;BME280;9221;42.646;23.380;2023-01-29T14:48:09;94873.22;;;1.99;85.31
3968;BME280;9221;42.646;23.380;2023-01-29T14:56:00;94857.28;;;2.06;86.26
3968;BME280;9221;42.646;23.380;2023-01-29T14:58:48;94890.69;;;1.97;86.23
3968;BME280;9221;42.646;23.380;2023-01-29T15:01:29;94782.00;;;1.59;86.72
3968;BME280;9221;42.646;23.380;2023-01-29T15:04:39;94818.16;;;1.78;87.26
3968;BME280;9221;42.646;23.380;2023-01-29T15:07:06;94823.25;;;1.80;87.71
3968;BME280;9221;42.646;23.380;2023-01-29T15:09:43;94775.66;;;1.49;87.99
3968;BME280;9221;42.646;23.380;2023-01-29T15:12:22;94862.91;;;1.83;87.84
3968;BME280;9221;42.646;23.380;2023-01-29T15:15:03;94855.84;;;1.85;88.17
3968;BME280;9221;42.646;23.380;2023-01-29T15:17:36;94802.25;;;1.83;88.27
3968;BME280;9221;42.646;23.380;2023-01-29T15:22:52;94837.25;;;1.77;87.80
3968;BME280;9221;42.646;23.380;2023-01-29T15:25:18;94790.53;;;1.61;88.10
3968;BME280;9221;42.646;23.380;2023-01-29T15:27:46;94778.84;;;1.54;87.91
3968;BME280;9221;42.646;23.380;2023-01-29T15:30:18;94809.44;;;1.79;88.17
3968;BME280;9221;42.646;23.380;2023-01-29T15:32:44;94770.47;;;1.49;88.38
3968;BME280;9221;42.646;23.380;2023-01-29T15:35:24;94840.72;;;1.78;88.51
3968;BME280;9221;42.646;23.380;2023-01-29T15:40:24;94801.22;;;1.42;88.60
3968;BME280;9221;42.646;23.380;2023-01-29T15:42:49;94826.78;;;1.64;88.55
3968;BME280;9221;42.646;23.380;2023-01-29T15:47:55;94784.38;;;1.33;88.09
3968;BME280;9221;42.646;23.380;2023-01-29T15:50:23;94830.47;;;1.60;88.38
3968;BME280;9221;42.646;23.380;2023-01-29T15:52:50;94861.47;;;1.63;88.39
3968;BME280;9221;42.646;23.380;2023-01-29T15:55:20;94782.31;;;1.24;88.56
3968;BME280;9221;42.646;23.380;2023-01-29T15:57:48;94820.84;;;1.32;88.56
3968;BME280;9221;42.646;23.380;2023-01-29T16:00:20;94869.56;;;1.59;88.82
3968;BME280;9221;42.646;23.380;2023-01-29T16:02:46;94828.13;;;1.56;88.81
3968;BME280;9221;42.646;23.380;2023-01-29T16:05:38;94843.72;;;1.56;88.54
3968;BME280;9221;42.646;23.380;2023-01-29T16:08:04;94809.63;;;1.31;89.29
3968;BME280;9221;42.646;23.380;2023-01-29T16:10:31;94836.38;;;1.48;89.66
3968;BME280;9221;42.646;23.380;2023-01-29T16:12:57;94854.22;;;1.54;89.79
3968;BME280;9221;42.646;23.380;2023-01-29T16:15:31;94843.63;;;1.57;89.45
3968;BME280;9221;42.646;23.380;2023-01-29T16:17:59;94812.03;;;1.34;89.17
3968;BME280;9221;42.646;23.380;2023-01-29T16:20:40;94851.78;;;1.51;89.69
3968;BME280;9221;42.646;23.380;2023-01-29T16:23:16;94780.72;;;0.91;89.45